createdAt,value
2017-07-30T00:00:44.768Z,8.63
2017-07-30T00:03:12.659Z,9.60
2017-07-30T00:05:40.589Z,9.33
2017-07-30T00:08:08.494Z,9.17
2017-07-30T00:10:36.393Z,9.30
2017-07-30T00:13:04.390Z,10.93
2017-07-30T00:15:32.277Z,10.00
2017-07-30T00:18:00.193Z,10.53
2017-07-30T00:20:28.127Z,10.40
2017-07-30T00:22:56.032Z,10.53
2017-07-30T00:25:23.919Z,9.40
2017-07-30T00:27:51.857Z,11.43
2017-07-30T00:30:19.747Z,9.80
2017-07-30T00:32:47.691Z,10.63
2017-07-30T00:35:15.644Z,10.23
2017-07-30T00:37:43.576Z,10.20
2017-07-30T00:40:11.546Z,11.53
2017-07-30T00:42:39.446Z,11.40
2017-07-30T00:45:07.358Z,10.20
2017-07-30T00:47:35.362Z,10.40
2017-07-30T00:50:03.263Z,10.90
2017-07-30T00:52:31.123Z,10.47
2017-07-30T00:54:59.050Z,10.30
2017-07-30T00:57:27.035Z,11.10
2017-07-30T00:59:54.958Z,11.13
2017-07-30T01:02:22.881Z,11.67
2017-07-30T01:04:50.778Z,11.70
2017-07-30T01:07:18.681Z,9.80
2017-07-30T01:09:46.610Z,10.30
2017-07-30T01:12:14.499Z,11.17
2017-07-30T01:14:42.491Z,11.00
2017-07-30T01:17:10.407Z,12.03
2017-07-30T01:19:38.331Z,11.90
2017-07-30T01:22:12.493Z,10.80
2017-07-30T01:24:40.427Z,10.00
2017-07-30T01:27:08.339Z,11.10
2017-07-30T01:29:36.252Z,11.30
2017-07-30T01:32:04.179Z,11.47
2017-07-30T01:34:32.132Z,10.30
2017-07-30T01:37:00.163Z,10.90
2017-07-30T01:39:28.107Z,12.00
2017-07-30T01:41:56.023Z,11.30
2017-07-30T01:44:23.927Z,11.20
2017-07-30T01:46:51.855Z,10.60
2017-07-30T01:49:19.741Z,11.90
2017-07-30T01:51:47.671Z,11.77
2017-07-30T01:54:15.734Z,11.13
2017-07-30T01:56:43.627Z,11.27
2017-07-30T01:59:11.551Z,11.47
2017-07-30T02:01:39.462Z,12.23
2017-07-30T02:04:07.417Z,12.10
2017-07-30T02:06:35.326Z,10.30
2017-07-30T02:09:03.316Z,12.10
2017-07-30T02:11:31.215Z,11.83
2017-07-30T02:13:59.123Z,11.30
2017-07-30T02:16:27.067Z,10.23
2017-07-30T02:18:55.020Z,11.20
2017-07-30T02:21:22.899Z,11.93
2017-07-30T02:23:50.831Z,11.23
2017-07-30T02:26:18.805Z,11.53
2017-07-30T02:28:46.702Z,11.40
2017-07-30T02:31:14.582Z,12.97
2017-07-30T02:33:42.515Z,11.40
2017-07-30T02:36:10.422Z,11.00
2017-07-30T02:38:38.325Z,12.23
2017-07-30T02:41:06.242Z,11.40
2017-07-30T02:43:34.181Z,12.20
2017-07-30T02:46:02.119Z,11.57
2017-07-30T02:48:30.057Z,11.20
2017-07-30T02:50:57.981Z,11.07
2017-07-30T02:53:25.872Z,10.67
2017-07-30T02:55:53.782Z,13.00
2017-07-30T02:58:21.702Z,11.43
2017-07-30T03:00:49.679Z,12.10
2017-07-30T03:03:17.566Z,11.73
2017-07-30T03:05:45.484Z,11.97
2017-07-30T03:08:13.366Z,12.13
2017-07-30T03:10:41.282Z,11.67
2017-07-30T03:13:09.399Z,11.73
2017-07-30T03:15:37.298Z,11.03
2017-07-30T03:18:05.254Z,10.70
2017-07-30T03:20:33.150Z,11.63
2017-07-30T03:23:01.053Z,11.30
2017-07-30T03:25:28.963Z,11.83
2017-07-30T03:27:56.874Z,12.10
2017-07-30T03:30:24.816Z,12.80
2017-07-30T03:32:52.694Z,11.70
2017-07-30T03:35:20.623Z,12.03
2017-07-30T03:37:48.502Z,10.90
2017-07-30T03:40:16.387Z,11.33
2017-07-30T03:42:44.293Z,12.57
2017-07-30T03:45:12.184Z,11.13
2017-07-30T03:47:40.201Z,11.80
2017-07-30T03:50:08.097Z,12.27
2017-07-30T03:52:36.022Z,14.30
2017-07-30T03:55:03.915Z,13.37
2017-07-30T03:57:31.845Z,12.07
2017-07-30T03:59:59.701Z,12.13
2017-07-30T04:02:27.613Z,12.30
2017-07-30T04:04:55.497Z,12.30
2017-07-30T04:07:23.431Z,13.30
2017-07-30T04:09:51.350Z,12.27
2017-07-30T04:12:19.243Z,12.00
2017-07-30T04:14:47.195Z,12.57
2017-07-30T04:17:15.106Z,12.33
2017-07-30T04:19:43.011Z,12.60
2017-07-30T04:22:10.909Z,12.70
2017-07-30T04:24:38.822Z,11.70
2017-07-30T04:27:06.698Z,11.73
2017-07-30T04:29:34.581Z,13.47
2017-07-30T04:32:02.498Z,12.40
2017-07-30T04:34:30.399Z,12.47
2017-07-30T04:36:58.306Z,12.30
2017-07-30T04:39:26.241Z,12.40
2017-07-30T04:41:54.128Z,12.17
2017-07-30T04:44:22.049Z,11.90
2017-07-30T04:46:49.978Z,11.30
2017-07-30T04:49:17.927Z,11.43
2017-07-30T04:51:45.831Z,11.53
2017-07-30T04:54:13.772Z,10.70
2017-07-30T04:56:41.708Z,11.27
2017-07-30T04:59:09.709Z,11.50
2017-07-30T05:01:37.626Z,10.93
2017-07-30T05:04:05.530Z,12.10
2017-07-30T05:06:33.413Z,11.03
2017-07-30T05:09:01.322Z,11.87
2017-07-30T05:11:29.212Z,11.67
2017-07-30T05:13:57.096Z,12.30
2017-07-30T05:16:24.985Z,11.93
2017-07-30T05:18:52.853Z,11.10
2017-07-30T05:21:20.800Z,11.73
2017-07-30T05:23:48.787Z,10.30
2017-07-30T05:26:16.728Z,11.57
2017-07-30T05:28:44.827Z,12.17
2017-07-30T05:31:12.781Z,11.30
2017-07-30T05:33:42.831Z,12.20
2017-07-30T05:36:17.937Z,11.40
2017-07-30T05:38:45.898Z,10.43
2017-07-30T05:41:13.839Z,11.77
2017-07-30T05:43:41.834Z,11.27
2017-07-30T05:46:09.730Z,12.00
2017-07-30T05:48:37.657Z,11.17
2017-07-30T05:51:05.667Z,10.93
2017-07-30T05:53:33.608Z,10.93
2017-07-30T05:56:01.595Z,10.60
2017-07-30T05:58:29.577Z,11.70
2017-07-30T06:00:57.569Z,10.80
2017-07-30T06:03:25.563Z,11.17
2017-07-30T06:05:53.594Z,10.93
2017-07-30T06:08:21.575Z,9.20
2017-07-30T06:10:49.704Z,10.83
2017-07-30T06:13:17.605Z,11.33
2017-07-30T06:15:45.550Z,9.97
2017-07-30T06:18:13.665Z,9.40
2017-07-30T06:20:41.630Z,10.10
2017-07-30T06:23:09.778Z,9.20
2017-07-30T06:25:37.772Z,10.17
2017-07-30T06:28:05.764Z,8.90
2017-07-30T06:30:33.835Z,10.20
2017-07-30T06:33:01.881Z,9.00
2017-07-30T06:35:29.950Z,9.90
2017-07-30T06:37:57.950Z,8.23
2017-07-30T06:40:25.883Z,9.60
2017-07-30T06:42:53.979Z,10.00
2017-07-30T06:45:22.028Z,10.80
2017-07-30T06:47:49.969Z,9.17
2017-07-30T06:50:17.863Z,9.97
2017-07-30T06:52:46.100Z,8.37
2017-07-30T06:55:14.024Z,8.17
2017-07-30T06:57:42.008Z,8.73
2017-07-30T07:00:09.922Z,9.30
2017-07-30T07:02:39.961Z,10.07
2017-07-30T07:05:08.012Z,8.50
2017-07-30T07:07:35.949Z,9.20
2017-07-30T07:10:04.905Z,10.17
2017-07-30T07:12:32.862Z,8.70
2017-07-30T07:15:00.824Z,10.73
2017-07-30T07:17:28.748Z,10.50
2017-07-30T07:19:56.636Z,8.57
2017-07-30T07:22:24.708Z,7.53
2017-07-30T07:24:52.610Z,7.90
2017-07-30T07:27:20.552Z,8.90
2017-07-30T07:29:48.488Z,8.50
2017-07-30T07:32:16.390Z,6.97
2017-07-30T07:34:44.390Z,7.00
2017-07-30T07:37:12.362Z,7.90
2017-07-30T07:39:40.470Z,7.60
2017-07-30T07:42:08.347Z,8.60
2017-07-30T07:44:36.626Z,7.37
2017-07-30T07:47:04.858Z,7.30
2017-07-30T07:49:32.811Z,7.60
2017-07-30T07:52:01.502Z,7.80
2017-07-30T07:54:29.775Z,7.70
2017-07-30T07:56:58.030Z,7.90
2017-07-30T07:59:26.179Z,7.70
2017-07-30T08:01:54.635Z,6.60
2017-07-30T08:04:22.555Z,7.43
2017-07-30T08:06:57.330Z,7.23
2017-07-30T08:09:28.857Z,6.90
2017-07-30T08:11:56.803Z,5.47
2017-07-30T08:14:25.606Z,6.63
2017-07-30T08:17:08.063Z,6.63
2017-07-30T08:19:36.716Z,6.20
2017-07-30T08:22:04.613Z,7.30
2017-07-30T08:24:32.513Z,6.60
2017-07-30T08:29:35.746Z,7.87
2017-07-30T08:32:03.724Z,9.83
2017-07-30T08:34:31.642Z,7.30
2017-07-30T08:36:59.592Z,6.63
2017-07-30T08:39:27.502Z,7.63
2017-07-30T08:41:55.495Z,9.20
2017-07-30T08:44:23.400Z,9.20
2017-07-30T08:46:51.557Z,7.93
2017-07-30T08:49:19.509Z,6.80
2017-07-30T08:51:47.761Z,6.90
2017-07-30T08:54:15.807Z,7.37
2017-07-30T08:56:44.350Z,7.57
2017-07-30T08:59:12.998Z,8.00
2017-07-30T09:01:41.986Z,6.60
2017-07-30T09:04:10.696Z,6.80
2017-07-30T09:06:56.374Z,12.27
2017-07-30T09:09:24.345Z,12.23
2017-07-30T09:11:52.398Z,8.00
2017-07-30T09:14:21.005Z,6.60
2017-07-30T09:16:49.489Z,6.97
2017-07-30T09:19:17.691Z,7.67
2017-07-30T09:21:45.666Z,6.23
2017-07-30T09:24:13.615Z,6.67
2017-07-30T09:26:45.918Z,14.07
2017-07-30T09:29:13.924Z,5.87
2017-07-30T09:31:42.318Z,6.10
2017-07-30T09:34:10.371Z,5.40
2017-07-30T09:36:38.293Z,5.03
2017-07-30T09:39:07.382Z,5.40
2017-07-30T09:41:35.311Z,5.57
2017-07-30T09:44:03.375Z,9.13
2017-07-30T09:46:31.340Z,5.13
2017-07-30T09:48:59.295Z,5.50
2017-07-30T09:51:27.251Z,5.07
2017-07-30T09:53:55.212Z,5.60
2017-07-30T09:56:23.124Z,5.47
2017-07-30T09:58:51.186Z,8.53
2017-07-30T10:01:19.174Z,6.80
2017-07-30T10:03:48.375Z,5.20
2017-07-30T10:06:16.352Z,9.23
2017-07-30T10:08:44.339Z,4.50
2017-07-30T10:11:12.348Z,4.30
2017-07-30T10:13:40.257Z,4.60
2017-07-30T10:16:09.547Z,7.00
2017-07-30T10:18:37.897Z,5.73
2017-07-30T10:21:05.973Z,5.60
2017-07-30T10:23:33.927Z,6.43
2017-07-30T10:26:01.899Z,5.00
2017-07-30T10:28:29.910Z,4.77
2017-07-30T10:30:58.214Z,5.07
2017-07-30T10:33:32.141Z,4.90
2017-07-30T10:36:00.056Z,5.90
2017-07-30T10:38:28.331Z,4.93
2017-07-30T10:40:56.436Z,8.33
2017-07-30T10:43:24.847Z,11.63
2017-07-30T10:45:52.878Z,17.10
2017-07-30T10:48:20.969Z,5.70
2017-07-30T10:50:48.970Z,6.50
2017-07-30T10:53:17.236Z,5.30
2017-07-30T10:58:25.764Z,7.07
2017-07-30T11:00:56.746Z,4.57
2017-07-30T11:03:25.199Z,4.63
2017-07-30T11:05:55.093Z,4.60
2017-07-30T11:08:24.854Z,4.47
2017-07-30T11:13:35.788Z,4.47
2017-07-30T11:16:03.763Z,4.60
2017-07-30T11:21:21.475Z,12.20
2017-07-30T11:23:53.232Z,4.40
2017-07-30T11:26:21.195Z,5.03
2017-07-30T11:28:49.261Z,4.40
2017-07-30T11:31:23.490Z,6.60
2017-07-30T11:33:51.785Z,6.50
2017-07-30T11:36:20.046Z,4.70
2017-07-30T11:38:48.033Z,4.13
2017-07-30T11:41:16.002Z,4.40
2017-07-30T11:43:44.347Z,8.90
2017-07-30T11:46:13.082Z,5.40
2017-07-30T11:48:41.956Z,5.33
2017-07-30T11:53:57.591Z,11.00
2017-07-30T11:59:25.043Z,7.00
2017-07-30T12:04:41.574Z,5.10
2017-07-30T12:18:24.539Z,4.87
2017-07-30T12:20:52.478Z,5.80
2017-07-30T12:26:11.084Z,5.23
2017-07-30T12:28:40.666Z,5.37
2017-07-30T12:31:08.684Z,4.70
2017-07-30T12:33:36.659Z,5.27
2017-07-30T12:36:07.024Z,4.87
2017-07-30T12:44:09.743Z,5.27
2017-07-30T12:46:45.365Z,5.17
2017-07-30T12:49:15.686Z,4.83
2017-07-30T12:57:18.807Z,4.57
2017-07-30T12:59:59.922Z,4.40
2017-07-30T13:05:15.982Z,4.27
2017-07-30T13:13:27.119Z,5.30
2017-07-30T13:16:08.192Z,4.50
2017-07-30T13:18:51.438Z,4.10
2017-07-30T13:23:55.874Z,4.73
2017-07-30T13:26:23.772Z,5.37
2017-07-30T13:31:39.554Z,4.23
2017-07-30T13:34:05.799Z,3.07
2017-07-30T13:36:40.093Z,3.13
2017-07-30T13:39:13.678Z,4.30
2017-07-30T13:44:38.161Z,3.80
2017-07-30T13:47:04.477Z,3.60
2017-07-30T13:52:23.571Z,2.87
2017-07-30T14:06:09.428Z,3.27
2017-07-30T14:08:46.281Z,3.63
2017-07-30T14:11:12.708Z,3.40
2017-07-30T14:13:39.024Z,3.90
2017-07-30T14:16:30.004Z,3.50
2017-07-30T14:18:56.838Z,3.80
2017-07-30T14:21:23.086Z,4.00
2017-07-30T14:23:52.881Z,6.47
2017-07-30T14:26:36.122Z,3.80
2017-07-30T14:29:02.520Z,5.13
2017-07-30T14:40:07.564Z,4.80
2017-07-30T14:42:33.820Z,4.13
2017-07-30T14:47:54.657Z,3.70
2017-07-30T14:50:20.922Z,4.00
2017-07-30T14:55:39.966Z,3.90
2017-07-30T15:01:00.638Z,4.60
2017-07-30T15:06:20.168Z,12.90
2017-07-30T15:08:47.262Z,5.10
2017-07-30T15:14:08.493Z,5.77
2017-07-30T15:16:52.276Z,7.17
2017-07-30T15:19:18.618Z,4.57
2017-07-30T15:36:22.997Z,5.50
2017-07-30T15:38:49.470Z,6.93
2017-07-30T15:41:15.739Z,5.73
2017-07-30T15:43:42.030Z,6.80
2017-07-30T15:46:24.803Z,6.27
2017-07-30T15:48:56.256Z,5.00
2017-07-30T15:54:25.183Z,21.90
2017-07-30T15:56:51.387Z,6.10
2017-07-30T15:59:22.882Z,5.80
2017-07-30T16:01:49.507Z,4.60
2017-07-30T16:04:15.906Z,5.47
2017-07-30T16:21:06.827Z,4.87
2017-07-30T16:23:33.928Z,7.30
2017-07-30T16:29:16.572Z,4.90
2017-07-30T16:31:43.170Z,4.07
2017-07-30T16:34:09.467Z,7.77
2017-07-30T16:36:51.054Z,7.57
2017-07-30T16:42:20.660Z,6.20
2017-07-30T16:44:48.059Z,7.10
2017-07-30T16:47:18.065Z,5.00
2017-07-30T17:01:27.094Z,8.80
2017-07-30T17:03:55.679Z,5.53
2017-07-30T17:15:07.047Z,4.83
2017-07-30T17:17:35.454Z,4.77
2017-07-30T17:20:10.004Z,4.90
2017-07-30T17:31:07.960Z,5.00
2017-07-30T17:39:29.002Z,4.40
2017-07-30T17:47:45.647Z,5.03
2017-07-30T17:50:12.132Z,4.93
2017-07-30T17:52:39.231Z,5.13
2017-07-30T17:57:58.541Z,5.00
2017-07-30T18:00:29.145Z,5.07
2017-07-30T18:51:44.715Z,6.13
2017-07-30T18:57:19.294Z,5.80
2017-07-30T19:15:24.229Z,6.90
2017-07-30T19:17:50.735Z,6.57
2017-07-30T19:20:24.640Z,5.77
2017-07-30T19:37:22.203Z,5.63
2017-07-30T20:00:17.486Z,5.33
2017-07-30T20:03:00.159Z,5.43
2017-07-30T20:05:34.016Z,6.10
2017-07-30T20:19:43.772Z,6.13
2017-07-30T20:22:10.313Z,5.60
2017-07-30T20:24:52.950Z,6.17
2017-07-30T20:27:23.750Z,6.00
2017-07-30T20:30:08.279Z,6.03
2017-07-30T20:32:39.966Z,6.17
2017-07-30T20:35:08.114Z,5.93
2017-07-30T20:37:37.789Z,5.60
2017-07-30T20:40:25.700Z,5.87
2017-07-30T20:42:52.149Z,5.77
2017-07-30T20:48:28.122Z,5.83
2017-07-30T21:02:34.032Z,6.50
2017-07-30T21:05:17.720Z,5.50
2017-07-30T21:07:44.900Z,6.90
2017-07-30T21:10:11.307Z,6.60
2017-07-30T21:12:43.813Z,6.30
2017-07-30T21:15:12.077Z,6.30
2017-07-30T21:17:38.406Z,6.37
2017-07-30T21:20:23.283Z,7.77
2017-07-30T21:22:49.727Z,6.40
2017-07-30T21:25:16.007Z,7.00
2017-07-30T21:27:42.231Z,6.37
2017-07-30T21:30:22.068Z,6.13
2017-07-30T21:33:01.836Z,6.00
2017-07-30T21:35:28.207Z,6.47
2017-07-30T21:37:54.708Z,9.33
2017-07-30T21:42:55.892Z,17.93
2017-07-30T21:45:22.194Z,7.90
2017-07-30T21:47:54.092Z,5.97
2017-07-30T21:50:22.493Z,7.67
2017-07-30T21:52:48.778Z,7.40
2017-07-30T21:55:30.819Z,7.00
2017-07-30T21:58:23.722Z,6.67
2017-07-30T22:00:53.204Z,9.10
2017-07-30T22:03:20.117Z,7.37
2017-07-30T22:05:47.056Z,8.77
2017-07-30T22:11:10.224Z,7.97
2017-07-30T22:13:36.692Z,7.60
2017-07-30T22:16:03.115Z,8.37
2017-07-30T22:18:39.489Z,7.70
2017-07-30T22:24:12.764Z,7.90
2017-07-30T22:26:39.559Z,7.67
2017-07-30T22:32:00.026Z,7.77
2017-07-30T22:34:26.518Z,6.87
2017-07-30T22:39:46.559Z,7.70
2017-07-30T22:45:05.673Z,7.53
2017-07-30T22:47:35.809Z,6.93
2017-07-30T22:50:02.346Z,7.40
2017-07-30T22:52:28.667Z,8.27
2017-07-30T22:54:56.445Z,8.70
2017-07-30T22:57:22.822Z,7.57
2017-07-30T23:11:35.959Z,7.40
2017-07-30T23:14:02.317Z,8.13
2017-07-30T23:16:29.162Z,7.33
2017-07-30T23:18:55.510Z,8.63
2017-07-30T23:21:23.100Z,8.17
2017-07-30T23:30:28.101Z,7.87
2017-07-30T23:33:01.805Z,7.80
2017-07-30T23:35:53.026Z,7.63
2017-07-30T23:41:50.272Z,6.97
2017-07-30T23:44:24.295Z,8.10
2017-07-30T23:46:55.888Z,7.30
2017-07-30T23:49:33.111Z,7.97
2017-07-30T23:57:49.273Z,7.50
